createdAt,value
2023-02-01T00:01:29.488Z,99123.75
2023-02-01T00:03:57.795Z,99122.09
2023-02-01T00:06:25.722Z,99116.75
2023-02-01T00:08:57.723Z,99103.75
2023-02-01T00:11:26.469Z,99114.75
2023-02-01T00:13:54.448Z,99120.38
2023-02-01T00:16:28.279Z,99120.44
2023-02-01T00:19:11.290Z,99126.72
2023-02-01T00:21:42.654Z,99128.72
2023-02-01T00:24:14.462Z,99126.94
2023-02-01T00:26:45.566Z,99116.91
2023-02-01T00:29:19.191Z,99118.84
2023-02-01T00:31:47.595Z,99119.13
2023-02-01T00:34:19.891Z,99120.47
2023-02-01T00:36:48.129Z,99121.72
2023-02-01T00:39:17.395Z,99107.56
2023-02-01T00:41:48.015Z,99121.09
2023-02-01T00:44:16.259Z,99130.38
2023-02-01T00:46:49.817Z,99097.19
2023-02-01T00:49:18.140Z,99123.38
2023-02-01T00:51:46.015Z,99110.16
2023-02-01T00:54:13.878Z,99119.44
2023-02-01T00:56:45.353Z,99114.88
2023-02-01T00:59:13.874Z,99096.69
2023-02-01T01:01:42.203Z,99116.69
2023-02-01T01:04:10.383Z,99117.69
2023-02-01T01:06:38.588Z,99116.84
2023-02-01T01:09:08.847Z,99113.50
2023-02-01T01:11:39.903Z,99126.88
2023-02-01T01:14:11.104Z,99121.28
2023-02-01T01:16:39.154Z,99128.12
2023-02-01T01:19:06.887Z,99108.34
2023-02-01T01:21:35.476Z,99127.00
2023-02-01T01:24:03.311Z,99125.97
2023-02-01T01:26:31.957Z,99130.38
2023-02-01T01:29:01.160Z,99132.94
2023-02-01T01:31:29.777Z,99137.50
2023-02-01T01:34:00.084Z,99142.28
2023-02-01T01:36:29.954Z,99138.88
2023-02-01T01:38:58.376Z,99135.25
2023-02-01T01:41:32.605Z,99135.25
2023-02-01T01:44:07.640Z,99144.31
2023-02-01T01:46:42.102Z,99135.13
2023-02-01T01:49:21.359Z,99140.06
2023-02-01T01:51:56.749Z,99137.00
2023-02-01T01:54:41.037Z,99144.19
2023-02-01T01:57:34.656Z,99142.09
2023-02-01T02:00:15.206Z,99135.72
2023-02-01T02:02:48.325Z,99138.31
2023-02-01T02:05:19.297Z,99126.63
2023-02-01T02:07:50.802Z,99134.22
2023-02-01T02:10:19.277Z,99137.06
2023-02-01T02:12:49.739Z,99135.06
2023-02-01T02:15:18.482Z,99142.09
2023-02-01T02:18:04.126Z,99135.31
2023-02-01T02:20:53.908Z,99130.38
2023-02-01T02:23:28.142Z,99131.03
2023-02-01T02:26:24.198Z,99131.81
2023-02-01T02:29:20.507Z,99128.25
2023-02-01T02:31:59.663Z,99131.00
2023-02-01T02:34:41.746Z,99127.75
2023-02-01T02:37:12.882Z,99142.28
2023-02-01T02:40:08.553Z,99142.69
2023-02-01T02:43:10.280Z,99137.59
2023-02-01T02:46:23.281Z,99139.53
2023-02-01T02:49:18.843Z,99141.41
2023-02-01T02:52:25.121Z,99149.50
2023-02-01T02:54:56.064Z,99148.72
2023-02-01T02:57:52.007Z,99146.50
2023-02-01T03:00:50.910Z,99151.66
2023-02-01T03:03:39.983Z,99153.59
2023-02-01T03:06:17.283Z,99154.25
2023-02-01T03:08:46.506Z,99158.94
2023-02-01T03:11:16.749Z,99154.72
2023-02-01T03:14:01.236Z,99167.75
2023-02-01T03:16:43.630Z,99161.50
2023-02-01T03:19:51.535Z,99163.81
2023-02-01T03:22:25.515Z,99167.91
2023-02-01T03:24:56.706Z,99166.38
2023-02-01T03:27:51.169Z,99166.56
2023-02-01T03:30:23.805Z,99156.47
2023-02-01T03:33:02.306Z,99170.13
2023-02-01T03:36:03.042Z,99179.50
2023-02-01T03:38:39.803Z,99178.81
2023-02-01T03:41:48.262Z,99173.66
2023-02-01T03:44:20.633Z,99173.56
2023-02-01T03:47:00.651Z,99180.63
2023-02-01T03:49:51.587Z,99182.06
2023-02-01T03:52:32.270Z,99185.22
2023-02-01T03:55:01.242Z,99158.66
2023-02-01T03:57:38.718Z,99184.38
2023-02-01T04:00:09.674Z,99186.31
2023-02-01T04:02:45.391Z,99188.72
2023-02-01T04:05:13.781Z,99184.66
2023-02-01T04:07:42.895Z,99189.06
2023-02-01T04:10:12.104Z,99189.25
2023-02-01T04:12:41.681Z,99194.78
2023-02-01T04:15:09.981Z,99191.06
2023-02-01T04:17:40.782Z,99197.47
2023-02-01T04:20:10.349Z,99204.06
2023-02-01T04:22:38.258Z,99200.72
2023-02-01T04:25:07.117Z,99201.69
2023-02-01T04:27:35.786Z,99200.56
2023-02-01T04:30:05.196Z,99210.78
2023-02-01T04:32:33.065Z,99202.81
2023-02-01T04:35:01.356Z,99208.59
2023-02-01T04:37:30.839Z,99204.62
2023-02-01T04:39:58.802Z,99206.84
2023-02-01T04:42:27.100Z,99208.97
2023-02-01T04:44:54.984Z,99205.63
2023-02-01T04:47:26.092Z,99197.09
2023-02-01T04:49:54.294Z,99203.22
2023-02-01T04:52:22.184Z,99220.12
2023-02-01T04:54:56.619Z,99218.66
2023-02-01T04:57:28.916Z,99219.47
2023-02-01T04:59:59.768Z,99212.00
2023-02-01T05:02:30.932Z,99227.09
2023-02-01T05:04:58.894Z,99232.41
2023-02-01T05:07:27.141Z,99232.34
2023-02-01T05:09:54.948Z,99225.56
2023-02-01T05:13:01.265Z,99232.13
2023-02-01T05:15:30.399Z,99231.34
2023-02-01T05:17:58.606Z,99236.03
2023-02-01T05:20:26.565Z,99237.22
2023-02-01T05:22:54.905Z,99240.34
2023-02-01T05:25:22.779Z,99244.41
2023-02-01T05:27:55.299Z,99217.19
2023-02-01T05:30:26.535Z,99243.38
2023-02-01T05:32:54.677Z,99243.97
2023-02-01T05:35:22.589Z,99249.03
2023-02-01T05:37:50.953Z,99243.31
2023-02-01T05:40:19.144Z,99239.37
2023-02-01T05:42:47.122Z,99248.81
2023-02-01T05:45:15.765Z,99233.16
2023-02-01T05:47:43.839Z,99254.09
2023-02-01T05:50:12.016Z,99251.50
2023-02-01T05:52:40.253Z,99263.59
2023-02-01T05:55:08.453Z,99261.84
2023-02-01T05:57:36.303Z,99264.91
2023-02-01T06:00:05.292Z,99264.25
2023-02-01T06:02:40.681Z,99263.53
2023-02-01T06:05:09.401Z,99265.69
2023-02-01T06:07:37.208Z,99261.28
2023-02-01T06:10:08.225Z,99272.38
2023-02-01T06:12:36.575Z,99271.06
2023-02-01T06:15:04.808Z,99276.09
2023-02-01T06:17:32.611Z,99275.13
2023-02-01T06:20:00.753Z,99282.72
2023-02-01T06:22:28.915Z,99283.84
2023-02-01T06:24:56.626Z,99282.13
2023-02-01T06:27:24.819Z,99284.91
2023-02-01T06:29:52.717Z,99274.91
2023-02-01T06:32:21.074Z,99290.34
2023-02-01T06:34:49.173Z,99286.50
2023-02-01T06:37:17.056Z,99289.22
2023-02-01T06:39:44.886Z,99288.44
2023-02-01T06:42:13.322Z,99300.13
2023-02-01T06:44:41.137Z,99290.06
2023-02-01T06:47:09.441Z,99302.72
2023-02-01T06:49:37.732Z,99305.91
2023-02-01T06:52:05.536Z,99303.88
2023-02-01T06:54:34.949Z,99303.72
2023-02-01T06:57:03.186Z,99307.66
2023-02-01T06:59:33.773Z,99287.44
2023-02-01T07:02:01.709Z,99309.50
2023-02-01T07:04:29.960Z,99284.00
2023-02-01T07:06:57.649Z,99315.97
2023-02-01T07:09:25.469Z,99308.31
2023-02-01T07:11:53.605Z,99309.38
2023-02-01T07:14:21.477Z,99314.53
2023-02-01T07:16:49.316Z,99317.31
2023-02-01T07:19:17.560Z,99315.97
2023-02-01T07:21:45.403Z,99314.75
2023-02-01T07:24:16.052Z,99299.50
2023-02-01T07:26:44.280Z,99316.56
2023-02-01T07:29:12.122Z,99313.97
2023-02-01T07:31:39.834Z,99316.13
2023-02-01T07:34:08.050Z,99313.09
2023-02-01T07:36:37.547Z,99315.84
2023-02-01T07:39:05.546Z,99318.91
2023-02-01T07:41:33.501Z,99311.16
2023-02-01T07:44:01.106Z,99320.50
2023-02-01T07:46:29.020Z,99323.84
2023-02-01T07:48:57.478Z,99310.59
2023-02-01T07:51:25.271Z,99323.84
2023-02-01T07:53:54.736Z,99317.56
2023-02-01T07:56:24.446Z,99321.75
2023-02-01T07:58:54.054Z,99313.16
2023-02-01T08:01:27.617Z,99322.16
2023-02-01T08:04:00.641Z,99311.50
2023-02-01T08:06:30.436Z,99290.28
2023-02-01T08:08:59.317Z,99317.00
2023-02-01T08:11:27.630Z,99303.97
2023-02-01T08:13:55.799Z,99312.56
2023-02-01T08:16:25.268Z,99307.63
2023-02-01T08:18:54.590Z,99313.44
2023-02-01T08:21:25.821Z,99310.44
2023-02-01T08:23:54.214Z,99308.78
2023-02-01T08:26:24.603Z,99310.62
2023-02-01T08:29:01.576Z,99303.69
2023-02-01T08:31:30.946Z,99305.28
2023-02-01T08:34:01.283Z,99308.03
2023-02-01T08:36:31.301Z,99301.78
2023-02-01T08:38:59.297Z,99303.69
2023-02-01T08:41:30.320Z,99303.62
2023-02-01T08:43:58.821Z,99306.97
2023-02-01T08:46:26.816Z,99305.28
2023-02-01T08:48:57.650Z,99303.31
2023-02-01T08:51:25.870Z,99309.91
2023-02-01T08:53:53.883Z,99284.50
2023-02-01T08:56:21.734Z,99301.19
2023-02-01T08:58:49.890Z,99308.94
2023-02-01T09:01:18.951Z,99286.94
2023-02-01T09:03:47.195Z,99306.44
2023-02-01T09:06:16.647Z,99301.94
2023-02-01T09:08:45.110Z,99299.94
2023-02-01T09:11:18.610Z,99291.28
2023-02-01T09:13:48.502Z,99288.41
2023-02-01T09:16:16.934Z,99284.25
2023-02-01T09:18:55.623Z,99293.22
2023-02-01T09:21:33.164Z,99286.84
2023-02-01T09:24:01.087Z,99294.34
2023-02-01T09:26:33.062Z,99285.56
2023-02-01T09:29:01.894Z,99285.75
2023-02-01T09:31:30.035Z,99295.19
2023-02-01T09:33:58.011Z,99284.66
2023-02-01T09:36:26.281Z,99290.25
2023-02-01T09:38:56.939Z,99288.44
2023-02-01T09:41:54.024Z,99288.72
2023-02-01T09:44:35.577Z,99289.56
2023-02-01T09:47:17.452Z,99282.78
2023-02-01T09:49:57.427Z,99251.41
2023-02-01T09:52:35.997Z,99283.69
2023-02-01T09:55:14.993Z,99274.41
2023-02-01T09:57:59.229Z,99281.28
2023-02-01T10:00:35.045Z,99280.31
2023-02-01T10:03:03.545Z,99280.00
2023-02-01T10:05:43.591Z,99279.91
2023-02-01T10:08:27.834Z,99278.94
2023-02-01T10:11:05.082Z,99273.62
2023-02-01T10:13:40.035Z,99270.28
2023-02-01T10:16:18.865Z,99260.50
2023-02-01T10:19:16.179Z,99269.47
2023-02-01T10:21:46.889Z,99258.66
2023-02-01T10:24:39.945Z,99255.69
2023-02-01T10:27:19.949Z,99251.06
2023-02-01T10:29:55.852Z,99246.53
2023-02-01T10:32:31.844Z,99253.75
2023-02-01T10:35:02.999Z,99252.41
2023-02-01T10:37:35.651Z,99252.88
2023-02-01T10:40:15.834Z,99246.34
2023-02-01T10:42:47.948Z,99250.91
2023-02-01T10:45:21.945Z,99254.00
2023-02-01T10:47:52.409Z,99253.34
2023-02-01T10:51:01.974Z,99250.84
2023-02-01T10:54:02.001Z,99258.53
2023-02-01T10:56:32.617Z,99245.72
2023-02-01T10:59:06.158Z,99256.53
2023-02-01T11:01:46.595Z,99258.03
2023-02-01T11:04:17.932Z,99243.94
2023-02-01T11:07:08.816Z,99254.75
2023-02-01T11:09:41.334Z,99257.84
2023-02-01T11:12:28.405Z,99261.44
2023-02-01T11:15:15.100Z,99262.75
2023-02-01T11:17:49.188Z,99266.63
2023-02-01T11:20:43.475Z,99258.34
2023-02-01T11:23:22.961Z,99262.03
2023-02-01T11:26:02.919Z,99262.72
2023-02-01T11:28:39.118Z,99265.31
2023-02-01T11:31:13.440Z,99268.13
2023-02-01T11:33:51.866Z,99257.62
2023-02-01T11:36:26.474Z,99246.28
2023-02-01T11:39:16.488Z,99268.75
2023-02-01T11:42:16.396Z,99269.66
2023-02-01T11:44:47.530Z,99273.16
2023-02-01T11:47:29.274Z,99279.84
2023-02-01T11:50:00.535Z,99278.56
2023-02-01T11:52:58.218Z,99273.47
2023-02-01T11:55:48.440Z,99279.63
2023-02-01T11:58:35.839Z,99281.16
2023-02-01T12:01:18.245Z,99280.47
2023-02-01T12:03:49.323Z,99279.47
2023-02-01T12:09:25.210Z,99285.56
2023-02-01T12:12:10.757Z,99283.75
2023-02-01T12:15:12.464Z,99288.69
2023-02-01T12:17:55.396Z,99293.84
2023-02-01T12:20:41.406Z,99303.09
2023-02-01T12:23:50.663Z,99299.75
2023-02-01T12:26:33.590Z,99312.75
2023-02-01T12:29:35.040Z,99313.22
2023-02-01T12:32:14.364Z,99321.16
2023-02-01T12:34:42.199Z,99321.44
2023-02-01T12:37:52.909Z,99324.69
2023-02-01T12:40:59.012Z,99317.38
2023-02-01T12:43:37.010Z,99316.97
2023-02-01T12:46:14.726Z,99319.66
2023-02-01T12:48:54.756Z,99312.28
2023-02-01T12:51:28.483Z,99321.09
2023-02-01T12:54:12.297Z,99322.44
2023-02-01T12:56:52.774Z,99290.22
2023-02-01T12:59:27.897Z,99324.97
2023-02-01T13:02:06.225Z,99325.25
2023-02-01T13:04:53.601Z,99330.63
2023-02-01T13:07:45.989Z,99337.13
2023-02-01T13:10:37.011Z,99332.94
2023-02-01T13:13:19.909Z,99339.44
2023-02-01T13:15:57.905Z,99336.50
2023-02-01T13:18:33.629Z,99334.91
2023-02-01T13:21:22.989Z,99344.00
2023-02-01T13:23:52.618Z,99322.66
2023-02-01T13:26:21.078Z,99342.12
2023-02-01T13:28:55.640Z,99343.09
2023-02-01T13:32:01.323Z,99343.00
2023-02-01T13:34:50.830Z,99339.38
2023-02-01T13:37:53.711Z,99324.03
2023-02-01T13:40:40.262Z,99343.03
2023-02-01T13:43:18.981Z,99341.12
2023-02-01T13:45:53.667Z,99338.47
2023-02-01T13:48:49.859Z,99342.00
2023-02-01T13:51:36.880Z,99349.06
2023-02-01T13:54:07.235Z,99333.56
2023-02-01T13:56:44.263Z,99347.72
2023-02-01T13:59:37.062Z,99343.56
2023-02-01T14:02:41.901Z,99347.47
2023-02-01T14:05:31.135Z,99349.03
2023-02-01T14:08:08.323Z,99352.41
2023-02-01T14:10:58.177Z,99348.44
2023-02-01T14:13:37.726Z,99351.91
2023-02-01T14:16:05.957Z,99351.16
2023-02-01T14:18:39.191Z,99358.34
2023-02-01T14:21:30.603Z,99355.94
2023-02-01T14:24:18.681Z,99355.22
2023-02-01T14:26:54.231Z,99363.13
2023-02-01T14:29:33.462Z,99356.00
2023-02-01T14:32:14.325Z,99354.19
2023-02-01T14:34:48.239Z,99365.22
2023-02-01T14:37:19.312Z,99361.81
2023-02-01T14:39:47.124Z,99370.16
2023-02-01T14:42:44.738Z,99361.59
2023-02-01T14:45:26.394Z,99365.16
2023-02-01T14:47:55.973Z,99356.78
2023-02-01T14:50:38.696Z,99364.16
2023-02-01T14:53:13.998Z,99365.47
2023-02-01T14:55:50.218Z,99367.16
2023-02-01T14:58:37.590Z,99364.72
2023-02-01T15:01:18.646Z,99374.97
2023-02-01T15:03:52.306Z,99376.66
2023-02-01T15:06:30.516Z,99372.94
2023-02-01T15:09:10.937Z,99367.75
2023-02-01T15:12:00.978Z,99377.06
2023-02-01T15:15:10.914Z,99372.69
2023-02-01T15:17:39.764Z,99369.19
2023-02-01T15:20:21.267Z,99372.97
2023-02-01T15:23:07.457Z,99370.50
2023-02-01T15:25:40.909Z,99361.03
2023-02-01T15:28:15.373Z,99377.22
2023-02-01T15:30:54.297Z,99368.97
2023-02-01T15:33:22.997Z,99369.78
2023-02-01T15:35:53.680Z,99372.75
2023-02-01T15:38:32.114Z,99376.41
2023-02-01T15:41:19.044Z,99375.56
2023-02-01T15:43:55.947Z,99382.78
2023-02-01T15:46:43.853Z,99378.31
2023-02-01T15:49:38.829Z,99389.25
2023-02-01T15:52:42.041Z,99381.41
2023-02-01T15:55:20.194Z,99383.06
2023-02-01T15:57:48.644Z,99385.03
2023-02-01T16:00:20.200Z,99375.44
2023-02-01T16:03:02.201Z,99377.13
2023-02-01T16:05:43.819Z,99380.38
2023-02-01T16:08:15.304Z,99380.75
2023-02-01T16:10:46.953Z,99385.13
2023-02-01T16:13:16.876Z,99386.66
2023-02-01T16:15:45.578Z,99383.31
2023-02-01T16:18:16.901Z,99387.06
2023-02-01T16:20:49.412Z,99391.69
2023-02-01T16:23:17.384Z,99392.16
2023-02-01T16:25:45.101Z,99395.56
2023-02-01T16:28:13.396Z,99394.03
2023-02-01T16:30:41.133Z,99393.91
2023-02-01T16:36:05.148Z,99400.22
2023-02-01T16:38:32.992Z,99405.91
2023-02-01T16:41:01.163Z,99376.16
2023-02-01T16:43:29.603Z,99399.19
2023-02-01T16:46:02.721Z,99386.53
2023-02-01T16:48:34.735Z,99403.97
2023-02-01T16:51:05.012Z,99404.81
2023-02-01T16:53:41.738Z,99397.91
2023-02-01T16:56:20.856Z,99397.63
2023-02-01T16:58:49.789Z,99401.00
2023-02-01T17:01:20.148Z,99395.06
2023-02-01T17:03:48.245Z,99394.81
2023-02-01T17:06:19.845Z,99403.97
2023-02-01T17:08:52.749Z,99395.25
2023-02-01T17:11:21.216Z,99400.34
2023-02-01T17:13:49.041Z,99403.31
2023-02-01T17:16:19.641Z,99400.69
2023-02-01T17:19:13.334Z,99403.06
2023-02-01T17:21:47.493Z,99399.37
2023-02-01T17:27:04.727Z,99401.91
2023-02-01T17:29:32.743Z,99402.69
2023-02-01T17:32:01.717Z,99406.41
2023-02-01T17:34:29.596Z,99405.28
2023-02-01T17:36:57.857Z,99407.25
2023-02-01T17:39:44.189Z,99407.13
2023-02-01T17:42:12.913Z,99409.47
2023-02-01T17:44:40.644Z,99407.28
2023-02-01T17:47:08.323Z,99402.81
2023-02-01T17:49:36.494Z,99409.59
2023-02-01T17:52:04.368Z,99412.25
2023-02-01T17:54:32.587Z,99412.50
2023-02-01T17:57:03.708Z,99413.06
2023-02-01T17:59:31.480Z,99417.25
2023-02-01T18:02:01.207Z,99417.72
2023-02-01T18:04:29.408Z,99416.28
2023-02-01T18:06:57.968Z,99415.25
2023-02-01T18:09:25.689Z,99413.50
2023-02-01T18:11:55.963Z,99422.66
2023-02-01T18:14:23.834Z,99410.56
2023-02-01T18:16:51.587Z,99409.91
2023-02-01T18:19:19.695Z,99410.28
2023-02-01T18:21:47.507Z,99403.94
2023-02-01T18:24:17.293Z,99409.66
2023-02-01T18:26:45.535Z,99404.31
2023-02-01T18:31:58.700Z,99407.91
2023-02-01T18:34:27.499Z,99409.91
2023-02-01T18:36:55.357Z,99406.81
2023-02-01T18:39:23.698Z,99407.56
2023-02-01T18:41:52.107Z,99402.69
2023-02-01T18:44:19.939Z,99403.66
2023-02-01T18:46:48.165Z,99409.91
2023-02-01T18:49:18.330Z,99403.56
2023-02-01T18:51:49.344Z,99411.66
2023-02-01T18:54:17.667Z,99398.41
2023-02-01T18:56:45.622Z,99418.19
2023-02-01T18:59:15.175Z,99412.19
2023-02-01T19:01:49.316Z,99417.91
2023-02-01T19:04:23.640Z,99407.97
2023-02-01T19:06:54.004Z,99390.75
2023-02-01T19:09:21.945Z,99416.34
2023-02-01T19:11:52.605Z,99401.84
2023-02-01T19:14:20.880Z,99407.06
2023-02-01T19:16:50.204Z,99407.59
2023-02-01T19:19:18.010Z,99405.22
2023-02-01T19:21:46.202Z,99410.75
2023-02-01T19:24:13.996Z,99413.47
2023-02-01T19:26:42.292Z,99404.50
2023-02-01T19:29:11.187Z,99399.41
2023-02-01T19:31:38.969Z,99403.06
2023-02-01T19:34:06.866Z,99401.75
2023-02-01T19:36:41.561Z,99405.44
2023-02-01T19:39:10.813Z,99396.75
2023-02-01T19:41:39.032Z,99397.13
2023-02-01T19:44:06.897Z,99400.16
2023-02-01T19:46:34.949Z,99402.81
2023-02-01T19:49:08.151Z,99397.13
2023-02-01T19:51:36.095Z,99405.13
2023-02-01T19:54:04.713Z,99393.25
2023-02-01T19:56:32.592Z,99404.09
2023-02-01T19:59:00.523Z,99380.94
2023-02-01T20:01:28.175Z,99416.63
2023-02-01T20:04:02.677Z,99414.31
2023-02-01T20:06:31.767Z,99403.53
2023-02-01T20:09:00.788Z,99394.22
2023-02-01T20:11:32.026Z,99411.47
2023-02-01T20:14:00.466Z,99415.44
2023-02-01T20:16:28.836Z,99411.31
2023-02-01T20:18:56.710Z,99412.34
2023-02-01T20:21:28.119Z,99406.34
2023-02-01T20:23:55.893Z,99413.25
2023-02-01T20:26:25.631Z,99417.75
2023-02-01T20:28:55.078Z,99403.00
2023-02-01T20:31:28.959Z,99416.06
2023-02-01T20:33:58.961Z,99419.31
2023-02-01T20:36:28.735Z,99428.03
2023-02-01T20:38:57.985Z,99427.53
2023-02-01T20:41:27.103Z,99419.16
2023-02-01T20:43:58.161Z,99418.56
2023-02-01T20:46:26.478Z,99419.16
2023-02-01T20:48:54.367Z,99408.47
2023-02-01T20:51:22.525Z,99421.44
2023-02-01T20:53:54.181Z,99427.25
2023-02-01T20:56:22.713Z,99429.56
2023-02-01T20:58:50.911Z,99414.31
2023-02-01T21:01:18.763Z,99422.13
2023-02-01T21:03:46.518Z,99431.69
2023-02-01T21:06:14.769Z,99424.59
2023-02-01T21:08:42.707Z,99417.13
2023-02-01T21:11:16.209Z,99416.34
2023-02-01T21:13:51.004Z,99420.19
2023-02-01T21:16:22.160Z,99413.81
2023-02-01T21:18:53.985Z,99414.50
2023-02-01T21:21:25.001Z,99406.75
2023-02-01T21:23:55.527Z,99410.22
2023-02-01T21:26:27.878Z,99413.34
2023-02-01T21:28:57.155Z,99403.03
2023-02-01T21:31:26.108Z,99406.84
2023-02-01T21:33:56.939Z,99405.59
2023-02-01T21:36:25.403Z,99417.03
2023-02-01T21:39:02.041Z,99408.56
2023-02-01T21:41:50.266Z,99407.81
2023-02-01T21:44:18.342Z,99407.91
2023-02-01T21:46:46.638Z,99410.09
2023-02-01T21:49:14.825Z,99415.13
2023-02-01T21:51:43.007Z,99412.38
2023-02-01T21:54:12.419Z,99421.41
2023-02-01T21:56:41.462Z,99413.03
2023-02-01T21:59:13.616Z,99412.69
2023-02-01T22:01:42.699Z,99418.72
2023-02-01T22:04:11.494Z,99415.31
2023-02-01T22:06:46.195Z,99409.38
2023-02-01T22:09:22.771Z,99411.56
2023-02-01T22:11:53.563Z,99402.06
2023-02-01T22:14:22.376Z,99406.56
2023-02-01T22:16:50.385Z,99408.06
2023-02-01T22:19:19.695Z,99395.59
2023-02-01T22:21:49.188Z,99409.44
2023-02-01T22:24:20.730Z,99398.81
2023-02-01T22:26:50.022Z,99410.09
2023-02-01T22:29:21.349Z,99411.00
2023-02-01T22:31:50.739Z,99406.13
2023-02-01T22:34:22.547Z,99404.56
2023-02-01T22:36:51.082Z,99413.56
2023-02-01T22:39:18.918Z,99411.91
2023-02-01T22:41:46.717Z,99407.03
2023-02-01T22:44:15.013Z,99405.84
2023-02-01T22:46:42.777Z,99404.13
2023-02-01T22:49:10.738Z,99383.47
2023-02-01T22:51:39.036Z,99397.88
2023-02-01T22:54:07.021Z,99401.34
2023-02-01T22:56:37.774Z,99401.66
2023-02-01T22:59:08.136Z,99404.13
2023-02-01T23:01:36.127Z,99405.81
2023-02-01T23:04:06.260Z,99403.41
2023-02-01T23:06:35.182Z,99407.81
2023-02-01T23:09:11.853Z,99406.34
2023-02-01T23:11:40.560Z,99414.91
2023-02-01T23:14:12.725Z,99417.31
2023-02-01T23:16:41.765Z,99419.16
2023-02-01T23:19:09.735Z,99402.44
2023-02-01T23:21:37.987Z,99409.03
2023-02-01T23:24:08.054Z,99409.09
2023-02-01T23:26:36.544Z,99404.28
2023-02-01T23:29:05.510Z,99395.69
2023-02-01T23:31:35.798Z,99408.06
2023-02-01T23:34:04.908Z,99403.16
2023-02-01T23:36:34.087Z,99404.47
2023-02-01T23:39:02.390Z,99398.22
2023-02-01T23:41:30.479Z,99398.13
2023-02-01T23:43:58.660Z,99389.38
2023-02-01T23:46:29.358Z,99398.22
2023-02-01T23:48:57.827Z,99397.09
2023-02-01T23:51:26.964Z,99393.63
2023-02-01T23:53:55.228Z,99390.19
2023-02-01T23:56:35.243Z,99401.34
2023-02-01T23:59:10.340Z,99403.72
